sensor_id;sensor_type;location;lat;lon;timestamp;pressure;altitude;pressure_sealevel;temperature;humidity
26043;BME280;13818;52.156;5.382;2022-11-20T00:01:26;101115.44;;;-0.15;100.00
26043;BME280;13818;52.156;5.382;2022-11-20T00:03:55;101117.16;;;-0.19;100.00
26043;BME280;13818;52.156;5.382;2022-11-20T00:06:24;101114.53;;;-0.23;100.00
26043;BME280;13818;52.156;5.382;2022-11-20T00:08:53;101113.63;;;-0.27;100.00
26043;BME280;13818;52.156;5.382;2022-11-20T00:11:22;101105.81;;;-0.16;100.00
26043;BME280;13818;52.156;5.382;2022-11-20T00:13:51;101104.94;;;-0.21;100.00
26043;BME280;13818;52.156;5.382;2022-11-20T00:16:19;101106.63;;;-0.34;100.00
26043;BME280;13818;52.156;5.382;2022-11-20T00:18:46;101105.81;;;-0.24;100.00
26043;BME280;13818;52.156;5.382;2022-11-20T00:21:15;101110.16;;;-0.23;100.00
26043;BME280;13818;52.156;5.382;2022-11-20T00:23:42;101110.13;;;-0.34;100.00
26043;BME280;13818;52.156;5.382;2022-11-20T00:26:11;101109.28;;;-0.22;100.00
26043;BME280;13818;52.156;5.382;2022-11-20T00:28:37;101104.03;;;-0.22;100.00
26043;BME280;13818;52.156;5.382;2022-11-20T00:31:05;101118.88;;;-0.27;100.00
26043;BME280;13818;52.156;5.382;2022-11-20T00:33:32;101104.94;;;-0.13;100.00
26043;BME280;13818;52.156;5.382;2022-11-20T00:35:59;101098.75;;;-0.34;100.00
26043;BME280;13818;52.156;5.382;2022-11-20T00:38:27;101102.25;;;-0.43;100.00
26043;BME280;13818;52.156;5.382;2022-11-20T00:40:56;101098.78;;;-0.40;100.00
26043;BME280;13818;52.156;5.382;2022-11-20T00:43:22;101096.09;;;-0.50;100.00
26043;BME280;13818;52.156;5.382;2022-11-20T00:45:49;101100.47;;;-0.48;100.00
26043;BME280;13818;52.156;5.382;2022-11-20T00:48:15;101101.38;;;-0.39;100.00
26043;BME280;13818;52.156;5.382;2022-11-20T00:50:42;101093.50;;;-0.46;100.00
26043;BME280;13818;52.156;5.382;2022-11-20T00:53:08;101092.66;;;-0.44;100.00
26043;BME280;13818;52.156;5.382;2022-11-20T00:55:36;101092.63;;;-0.48;100.00
26043;BME280;13818;52.156;5.382;2022-11-20T00:58:03;101091.72;;;-0.51;100.00
26043;BME280;13818;52.156;5.382;2022-11-20T01:00:29;101086.44;;;-0.66;100.00
26043;BME280;13818;52.156;5.382;2022-11-20T01:02:55;101084.72;;;-0.61;100.00
26043;BME280;13818;52.156;5.382;2022-11-20T01:05:22;101087.31;;;-0.59;100.00
26043;BME280;13818;52.156;5.382;2022-11-20T01:07:48;101084.72;;;-0.62;100.00
26043;BME280;13818;52.156;5.382;2022-11-20T01:10:15;101077.75;;;-0.59;100.00
26043;BME280;13818;52.156;5.382;2022-11-20T01:12:42;101084.75;;;-0.58;100.00
26043;BME280;13818;52.156;5.382;2022-11-20T01:15:29;101080.38;;;-0.51;100.00
26043;BME280;13818;52.156;5.382;2022-11-20T01:17:55;101077.81;;;-0.39;100.00
26043;BME280;13818;52.156;5.382;2022-11-20T01:20:22;101080.34;;;-0.67;100.00
26043;BME280;13818;52.156;5.382;2022-11-20T01:22:48;101069.75;;;-0.90;100.00
26043;BME280;13818;52.156;5.382;2022-11-20T01:25:15;101070.66;;;-0.88;100.00
26043;BME280;13818;52.156;5.382;2022-11-20T01:27:42;101068.97;;;-0.69;100.00
26043;BME280;13818;52.156;5.382;2022-11-20T01:30:10;101069.00;;;-0.64;100.00
26043;BME280;13818;52.156;5.382;2022-11-20T01:32:36;101060.25;;;-0.64;100.00
26043;BME280;13818;52.156;5.382;2022-11-20T01:35:03;101074.19;;;-0.73;100.00
26043;BME280;13818;52.156;5.382;2022-11-20T01:37:30;101068.97;;;-0.67;100.00
26043;BME280;13818;52.156;5.382;2022-11-20T01:39:56;101073.31;;;-0.77;100.00
26043;BME280;13818;52.156;5.382;2022-11-20T01:42:22;101070.69;;;-0.83;100.00
26043;BME280;13818;52.156;5.382;2022-11-20T01:48:08;101064.56;;;-0.85;100.00
26043;BME280;13818;52.156;5.382;2022-11-20T01:50:35;101065.41;;;-0.89;100.00
26043;BME280;13818;52.156;5.382;2022-11-20T01:53:04;101062.75;;;-0.91;100.00
26043;BME280;13818;52.156;5.382;2022-11-20T01:55:34;101067.22;;;-0.71;100.00
26043;BME280;13818;52.156;5.382;2022-11-20T01:58:03;101061.09;;;-0.73;100.00
26043;BME280;13818;52.156;5.382;2022-11-20T02:00:30;101059.41;;;-0.67;100.00
26043;BME280;13818;52.156;5.382;2022-11-20T02:02:58;101061.13;;;-0.72;100.00
26043;BME280;13818;52.156;5.382;2022-11-20T02:05:29;101057.66;;;-0.57;100.00
26043;BME280;13818;52.156;5.382;2022-11-20T02:07:59;101050.69;;;-0.56;100.00
26043;BME280;13818;52.156;5.382;2022-11-20T02:10:26;101055.84;;;-0.81;100.00
26043;BME280;13818;52.156;5.382;2022-11-20T02:12:53;101059.38;;;-0.68;100.00
26043;BME280;13818;52.156;5.382;2022-11-20T02:15:38;101060.25;;;-0.69;100.00
26043;BME280;13818;52.156;5.382;2022-11-20T02:18:05;101053.28;;;-0.69;100.00
26043;BME280;13818;52.156;5.382;2022-11-20T02:20:33;101051.50;;;-0.76;100.00
26043;BME280;13818;52.156;5.382;2022-11-20T02:23:04;101050.59;;;-0.81;100.00
26043;BME280;13818;52.156;5.382;2022-11-20T02:25:33;101052.38;;;-0.75;100.00
26043;BME280;13818;52.156;5.382;2022-11-20T02:28:01;101044.47;;;-0.85;100.00
26043;BME280;13818;52.156;5.382;2022-11-20T02:30:28;101044.28;;;-1.28;100.00
26043;BME280;13818;52.156;5.382;2022-11-20T02:32:54;101039.69;;;-1.63;100.00
26043;BME280;13818;52.156;5.382;2022-11-20T02:35:42;101037.16;;;-1.54;100.00
26043;BME280;13818;52.156;5.382;2022-11-20T02:38:09;101038.06;;;-1.47;100.00
26043;BME280;13818;52.156;5.382;2022-11-20T02:40:37;101033.69;;;-1.51;100.00
26043;BME280;13818;52.156;5.382;2022-11-20T02:43:03;101020.53;;;-1.60;100.00
26043;BME280;13818;52.156;5.382;2022-11-20T02:45:30;101027.50;;;-1.62;100.00
26043;BME280;13818;52.156;5.382;2022-11-20T02:47:56;101025.69;;;-1.68;100.00
26043;BME280;13818;52.156;5.382;2022-11-20T02:50:23;101028.31;;;-1.68;100.00
26043;BME280;13818;52.156;5.382;2022-11-20T02:52:49;101029.22;;;-1.66;100.00
26043;BME280;13818;52.156;5.382;2022-11-20T02:55:16;101028.38;;;-1.62;100.00
26043;BME280;13818;52.156;5.382;2022-11-20T02:57:44;101024.00;;;-1.61;100.00
26043;BME280;13818;52.156;5.382;2022-11-20T03:00:11;101010.94;;;-1.63;100.00
26043;BME280;13818;52.156;5.382;2022-11-20T03:02:38;101015.28;;;-1.62;100.00
26043;BME280;13818;52.156;5.382;2022-11-20T03:05:04;101014.34;;;-1.75;100.00
26043;BME280;13818;52.156;5.382;2022-11-20T03:07:31;101009.88;;;-1.88;100.00
26043;BME280;13818;52.156;5.382;2022-11-20T03:09:57;101010.78;;;-1.86;100.00
26043;BME280;13818;52.156;5.382;2022-11-20T03:12:24;101010.03;;;-1.68;100.00
26043;BME280;13818;52.156;5.382;2022-11-20T03:14:52;101006.59;;;-1.62;100.00
26043;BME280;13818;52.156;5.382;2022-11-20T03:17:18;101010.91;;;-1.65;100.00
26043;BME280;13818;52.156;5.382;2022-11-20T03:19:44;101008.31;;;-1.65;100.00
26043;BME280;13818;52.156;5.382;2022-11-20T03:22:11;101001.22;;;-1.78;100.00
26043;BME280;13818;52.156;5.382;2022-11-20T03:24:38;100989.88;;;-1.82;100.00
26043;BME280;13818;52.156;5.382;2022-11-20T03:27:04;100992.56;;;-1.72;100.00
26043;BME280;13818;52.156;5.382;2022-11-20T03:29:30;100997.75;;;-1.78;100.00
26043;BME280;13818;52.156;5.382;2022-11-20T03:31:58;100998.56;;;-1.89;100.00
26043;BME280;13818;52.156;5.382;2022-11-20T03:34:25;100995.16;;;-1.78;100.00
26043;BME280;13818;52.156;5.382;2022-11-20T03:36:51;100992.44;;;-1.92;100.00
26043;BME280;13818;52.156;5.382;2022-11-20T03:39:18;100998.56;;;-1.89;100.00
26043;BME280;13818;52.156;5.382;2022-11-20T03:41:44;101001.22;;;-1.83;100.00
26043;BME280;13818;52.156;5.382;2022-11-20T03:44:11;100999.31;;;-2.02;100.00
26043;BME280;13818;52.156;5.382;2022-11-20T03:46:38;101001.84;;;-2.11;100.00
26043;BME280;13818;52.156;5.382;2022-11-20T03:49:06;100993.13;;;-2.17;100.00
26043;BME280;13818;52.156;5.382;2022-11-20T03:51:34;100987.16;;;-1.99;100.00
26043;BME280;13818;52.156;5.382;2022-11-20T03:54:04;100983.75;;;-1.90;100.00
26043;BME280;13818;52.156;5.382;2022-11-20T03:56:31;100985.50;;;-1.87;100.00
26043;BME280;13818;52.156;5.382;2022-11-20T03:58:58;100979.38;;;-1.94;100.00
26043;BME280;13818;52.156;5.382;2022-11-20T04:01:26;100979.38;;;-1.94;100.00
26043;BME280;13818;52.156;5.382;2022-11-20T04:03:54;100997.50;;;-2.13;100.00
26043;BME280;13818;52.156;5.382;2022-11-20T04:06:25;100979.16;;;-2.19;100.00
26043;BME280;13818;52.156;5.382;2022-11-20T04:08:53;100970.34;;;-2.30;100.00
26043;BME280;13818;52.156;5.382;2022-11-20T04:11:22;100970.41;;;-2.21;100.00
26043;BME280;13818;52.156;5.382;2022-11-20T04:13:50;100968.75;;;-2.11;100.00
26043;BME280;13818;52.156;5.382;2022-11-20T04:16:18;100968.88;;;-1.97;100.00
26043;BME280;13818;52.156;5.382;2022-11-20T04:18:44;100975.91;;;-1.88;100.00
26043;BME280;13818;52.156;5.382;2022-11-20T04:21:11;100963.53;;;-2.14;100.00
26043;BME280;13818;52.156;5.382;2022-11-20T04:23:39;100952.28;;;-2.04;100.00
26043;BME280;13818;52.156;5.382;2022-11-20T04:26:08;100960.19;;;-1.93;100.00
26043;BME280;13818;52.156;5.382;2022-11-20T04:28:35;100965.44;;;-1.87;100.00
26043;BME280;13818;52.156;5.382;2022-11-20T04:31:04;100980.97;;;-2.11;100.00
26043;BME280;13818;52.156;5.382;2022-11-20T04:33:31;100963.47;;;-2.19;100.00
26043;BME280;13818;52.156;5.382;2022-11-20T04:36:00;100965.25;;;-2.15;100.00
26043;BME280;13818;52.156;5.382;2022-11-20T04:38:28;100967.84;;;-2.16;100.00
26043;BME280;13818;52.156;5.382;2022-11-20T04:40:57;100960.81;;;-2.26;100.00
26043;BME280;13818;52.156;5.382;2022-11-20T04:43:24;100961.63;;;-2.34;100.00
26043;BME280;13818;52.156;5.382;2022-11-20T04:45:51;100951.03;;;-2.51;100.00
26043;BME280;13818;52.156;5.382;2022-11-20T04:48:17;100949.34;;;-2.46;100.00
26043;BME280;13818;52.156;5.382;2022-11-20T04:50:44;100957.25;;;-2.36;100.00
26043;BME280;13818;52.156;5.382;2022-11-20T04:53:10;100951.09;;;-2.44;100.00
26043;BME280;13818;52.156;5.382;2022-11-20T04:55:37;100945.81;;;-2.49;100.00
26043;BME280;13818;52.156;5.382;2022-11-20T04:58:04;100936.22;;;-2.52;100.00
26043;BME280;13818;52.156;5.382;2022-11-20T05:00:31;100938.78;;;-2.58;100.00
26043;BME280;13818;52.156;5.382;2022-11-20T05:02:57;100938.72;;;-2.61;100.00
26043;BME280;13818;52.156;5.382;2022-11-20T05:05:24;100941.19;;;-2.76;100.00
26043;BME280;13818;52.156;5.382;2022-11-20T05:07:50;100949.88;;;-2.79;100.00
26043;BME280;13818;52.156;5.382;2022-11-20T05:10:17;100941.19;;;-2.80;100.00
26043;BME280;13818;52.156;5.382;2022-11-20T05:12:43;100946.28;;;-2.89;100.00
26043;BME280;13818;52.156;5.382;2022-11-20T05:15:11;100939.44;;;-2.79;100.00
26043;BME280;13818;52.156;5.382;2022-11-20T05:17:37;100944.72;;;-2.74;100.00
26043;BME280;13818;52.156;5.382;2022-11-20T05:20:04;100948.16;;;-2.75;100.00
26043;BME280;13818;52.156;5.382;2022-11-20T05:22:31;100931.63;;;-2.78;100.00
26043;BME280;13818;52.156;5.382;2022-11-20T05:24:57;100928.25;;;-2.67;100.00
26043;BME280;13818;52.156;5.382;2022-11-20T05:27:24;100917.84;;;-2.66;100.00
26043;BME280;13818;52.156;5.382;2022-11-20T05:29:50;100920.44;;;-2.66;100.00
26043;BME280;13818;52.156;5.382;2022-11-20T05:32:18;100923.06;;;-2.63;100.00
26043;BME280;13818;52.156;5.382;2022-11-20T05:34:44;100915.16;;;-2.73;100.00
26043;BME280;13818;52.156;5.382;2022-11-20T05:37:11;100915.97;;;-2.78;100.00
26043;BME280;13818;52.156;5.382;2022-11-20T05:39:37;100895.03;;;-2.84;100.00
26043;BME280;13818;52.156;5.382;2022-11-20T05:42:04;100900.22;;;-2.87;100.00
26043;BME280;13818;52.156;5.382;2022-11-20T05:44:48;100903.69;;;-2.88;100.00
26043;BME280;13818;52.156;5.382;2022-11-20T05:47:14;100912.34;;;-2.90;100.00
26043;BME280;13818;52.156;5.382;2022-11-20T05:49:42;100920.19;;;-2.92;100.00
26043;BME280;13818;52.156;5.382;2022-11-20T05:52:09;100927.94;;;-2.95;100.00
26043;BME280;13818;52.156;5.382;2022-11-20T05:54:36;100923.63;;;-2.93;100.00
26043;BME280;13818;52.156;5.382;2022-11-20T05:57:02;100940.97;;;-3.00;100.00
26043;BME280;13818;52.156;5.382;2022-11-20T05:59:29;100933.84;;;-3.12;100.00
26043;BME280;13818;52.156;5.382;2022-11-20T06:01:55;100931.41;;;-2.98;100.00
26043;BME280;13818;52.156;5.382;2022-11-20T06:04:22;100931.50;;;-2.90;100.00
26043;BME280;13818;52.156;5.382;2022-11-20T06:06:49;100942.88;;;-2.83;100.00
26043;BME280;13818;52.156;5.382;2022-11-20T06:09:16;100943.72;;;-2.86;100.00
26043;BME280;13818;52.156;5.382;2022-11-20T06:11:42;100952.38;;;-2.88;100.00
26043;BME280;13818;52.156;5.382;2022-11-20T06:14:09;100950.63;;;-2.88;100.00
26043;BME280;13818;52.156;5.382;2022-11-20T06:16:35;100955.84;;;-2.91;100.00
26043;BME280;13818;52.156;5.382;2022-11-20T06:19:02;100955.63;;;-3.11;100.00
26043;BME280;13818;52.156;5.382;2022-11-20T06:21:28;100947.03;;;-3.02;100.00
26043;BME280;13818;52.156;5.382;2022-11-20T06:23:56;100949.66;;;-2.99;100.00
26043;BME280;13818;52.156;5.382;2022-11-20T06:26:24;100948.81;;;-2.95;100.00
26043;BME280;13818;52.156;5.382;2022-11-20T06:28:51;100937.47;;;-3.00;100.00
26043;BME280;13818;52.156;5.382;2022-11-20T06:31:20;100951.41;;;-3.00;100.00
26043;BME280;13818;52.156;5.382;2022-11-20T06:33:47;100945.28;;;-3.00;100.00
26043;BME280;13818;52.156;5.382;2022-11-20T06:36:14;100948.78;;;-3.01;100.00
26043;BME280;13818;52.156;5.382;2022-11-20T06:38:42;100937.44;;;-3.05;100.00
26043;BME280;13818;52.156;5.382;2022-11-20T06:41:12;100941.75;;;-3.05;100.00
26043;BME280;13818;52.156;5.382;2022-11-20T06:43:39;100941.66;;;-3.13;100.00
26043;BME280;13818;52.156;5.382;2022-11-20T06:46:05;100945.97;;;-3.18;100.00
26043;BME280;13818;52.156;5.382;2022-11-20T06:48:32;100950.22;;;-3.25;100.00
26043;BME280;13818;52.156;5.382;2022-11-20T06:50:58;100946.78;;;-3.24;100.00
26043;BME280;13818;52.156;5.382;2022-11-20T06:53:25;100951.91;;;-3.29;100.00
26043;BME280;13818;52.156;5.382;2022-11-20T06:55:52;100938.84;;;-3.32;100.00
26043;BME280;13818;52.156;5.382;2022-11-20T06:58:22;100937.88;;;-3.38;100.00
26043;BME280;13818;52.156;5.382;2022-11-20T07:00:49;100939.59;;;-3.40;100.00
26043;BME280;13818;52.156;5.382;2022-11-20T07:03:15;100930.91;;;-3.42;100.00
26043;BME280;13818;52.156;5.382;2022-11-20T07:05:43;100926.53;;;-3.42;100.00
26043;BME280;13818;52.156;5.382;2022-11-20T07:08:11;100930.88;;;-3.44;100.00
26043;BME280;13818;52.156;5.382;2022-11-20T07:10:38;100936.97;;;-3.44;100.00
26043;BME280;13818;52.156;5.382;2022-11-20T07:13:05;100925.69;;;-3.42;100.00
26043;BME280;13818;52.156;5.382;2022-11-20T07:15:33;100924.78;;;-3.43;100.00
26043;BME280;13818;52.156;5.382;2022-11-20T07:18:00;100927.38;;;-3.45;100.00
26043;BME280;13818;52.156;5.382;2022-11-20T07:20:26;100920.41;;;-3.47;100.00
26043;BME280;13818;52.156;5.382;2022-11-20T07:22:53;100922.94;;;-3.52;100.00
26043;BME280;13818;52.156;5.382;2022-11-20T07:25:21;100922.06;;;-3.52;100.00
26043;BME280;13818;52.156;5.382;2022-11-20T07:27:47;100930.00;;;-3.45;100.00
26043;BME280;13818;52.156;5.382;2022-11-20T07:30:14;100924.75;;;-3.48;100.00
26043;BME280;13818;52.156;5.382;2022-11-20T07:32:41;100917.78;;;-3.47;100.00
26043;BME280;13818;52.156;5.382;2022-11-20T07:35:08;100914.34;;;-3.45;100.00
26043;BME280;13818;52.156;5.382;2022-11-20T07:37:34;100917.03;;;-3.40;100.00
26043;BME280;13818;52.156;5.382;2022-11-20T07:40:01;100916.13;;;-3.40;100.00
26043;BME280;13818;52.156;5.382;2022-11-20T07:42:27;100902.22;;;-3.42;100.00
26043;BME280;13818;52.156;5.382;2022-11-20T07:44:54;100905.69;;;-3.44;100.00
26043;BME280;13818;52.156;5.382;2022-11-20T07:47:20;100909.19;;;-3.41;100.00
26043;BME280;13818;52.156;5.382;2022-11-20T07:49:48;100913.59;;;-3.34;100.00
26043;BME280;13818;52.156;5.382;2022-11-20T07:52:14;100917.91;;;-3.38;100.00
26043;BME280;13818;52.156;5.382;2022-11-20T07:54:41;100919.72;;;-3.31;100.00
26043;BME280;13818;52.156;5.382;2022-11-20T07:57:07;100923.25;;;-3.27;100.00
26043;BME280;13818;52.156;5.382;2022-11-20T07:59:34;100914.56;;;-3.28;100.00
26043;BME280;13818;52.156;5.382;2022-11-20T08:02:00;100927.78;;;-3.14;100.00
26043;BME280;13818;52.156;5.382;2022-11-20T08:04:26;100924.25;;;-3.16;100.00
26043;BME280;13818;52.156;5.382;2022-11-20T08:06:54;100919.13;;;-3.09;100.00
26043;BME280;13818;52.156;5.382;2022-11-20T08:09:21;100917.47;;;-3.01;100.00
26043;BME280;13818;52.156;5.382;2022-11-20T08:11:47;100907.97;;;-2.93;100.00
26043;BME280;13818;52.156;5.382;2022-11-20T08:14:32;100908.06;;;-2.85;100.00
26043;BME280;13818;52.156;5.382;2022-11-20T08:16:58;100897.69;;;-2.78;100.00
26043;BME280;13818;52.156;5.382;2022-11-20T08:19:25;100909.03;;;-2.75;100.00
26043;BME280;13818;52.156;5.382;2022-11-20T08:21:51;100889.19;;;-2.56;100.00
26043;BME280;13818;52.156;5.382;2022-11-20T08:24:19;100898.88;;;-2.44;100.00
26043;BME280;13818;52.156;5.382;2022-11-20T08:26:45;100893.63;;;-2.46;100.00
26043;BME280;13818;52.156;5.382;2022-11-20T08:29:12;100900.72;;;-2.30;100.00
26043;BME280;13818;52.156;5.382;2022-11-20T08:31:38;100886.84;;;-2.25;100.00
26043;BME280;13818;52.156;5.382;2022-11-20T08:34:05;100893.78;;;-2.26;100.00
26043;BME280;13818;52.156;5.382;2022-11-20T08:36:33;100893.88;;;-2.17;100.00
26043;BME280;13818;52.156;5.382;2022-11-20T08:39:00;100908.72;;;-2.08;100.00
26043;BME280;13818;52.156;5.382;2022-11-20T08:41:28;100909.59;;;-2.07;100.00
26043;BME280;13818;52.156;5.382;2022-11-20T08:43:59;100907.03;;;-2.00;100.00
26043;BME280;13818;52.156;5.382;2022-11-20T08:46:28;100909.59;;;-2.04;100.00
26043;BME280;13818;52.156;5.382;2022-11-20T08:48:57;100903.56;;;-2.02;100.00
26043;BME280;13818;52.156;5.382;2022-11-20T08:51:23;100911.41;;;-1.97;100.00
26043;BME280;13818;52.156;5.382;2022-11-20T08:53:50;100914.00;;;-1.99;100.00
26043;BME280;13818;52.156;5.382;2022-11-20T08:56:17;100896.69;;;-1.81;100.00
26043;BME280;13818;52.156;5.382;2022-11-20T08:58:45;100890.56;;;-1.86;100.00
26043;BME280;13818;52.156;5.382;2022-11-20T09:01:11;100891.50;;;-1.73;100.00
26043;BME280;13818;52.156;5.382;2022-11-20T09:03:38;100895.00;;;-1.68;100.00
26043;BME280;13818;52.156;5.382;2022-11-20T09:06:06;100894.16;;;-1.67;100.00
26043;BME280;13818;52.156;5.382;2022-11-20T09:08:33;100893.31;;;-1.60;100.00
26043;BME280;13818;52.156;5.382;2022-11-20T09:11:01;100896.84;;;-1.55;100.00
26043;BME280;13818;52.156;5.382;2022-11-20T09:13:29;100898.59;;;-1.51;100.00
26043;BME280;13818;52.156;5.382;2022-11-20T09:15:59;100896.84;;;-1.56;100.00
26043;BME280;13818;52.156;5.382;2022-11-20T09:18:26;100889.06;;;-1.35;100.00
26043;BME280;13818;52.156;5.382;2022-11-20T09:20:56;100889.06;;;-1.32;100.00
26043;BME280;13818;52.156;5.382;2022-11-20T09:23:22;100882.16;;;-1.14;100.00
26043;BME280;13818;52.156;5.382;2022-11-20T09:25:49;100871.69;;;-1.22;100.00
26043;BME280;13818;52.156;5.382;2022-11-20T09:28:16;100868.22;;;-1.04;100.00
26043;BME280;13818;52.156;5.382;2022-11-20T09:30:43;100856.03;;;-1.03;100.00
26043;BME280;13818;52.156;5.382;2022-11-20T09:33:11;100849.94;;;-0.90;100.00
26043;BME280;13818;52.156;5.382;2022-11-20T09:35:37;100851.69;;;-0.86;100.00
26043;BME280;13818;52.156;5.382;2022-11-20T09:38:05;100842.97;;;-0.74;100.00
26043;BME280;13818;52.156;5.382;2022-11-20T09:40:32;100852.56;;;-0.67;100.00
26043;BME280;13818;52.156;5.382;2022-11-20T09:43:03;100849.94;;;-0.63;100.00
26043;BME280;13818;52.156;5.382;2022-11-20T09:45:42;100839.47;;;-0.57;100.00
26043;BME280;13818;52.156;5.382;2022-11-20T09:48:36;100833.38;;;-0.52;100.00
26043;BME280;13818;52.156;5.382;2022-11-20T09:51:14;100824.63;;;-0.51;100.00
26043;BME280;13818;52.156;5.382;2022-11-20T09:53:54;100835.97;;;-0.36;100.00
26043;BME280;13818;52.156;5.382;2022-11-20T09:56:24;100836.81;;;-0.28;100.00
26043;BME280;13818;52.156;5.382;2022-11-20T09:58:54;100839.44;;;-0.22;100.00
26043;BME280;13818;52.156;5.382;2022-11-20T10:01:26;100842.03;;;-0.14;100.00
26043;BME280;13818;52.156;5.382;2022-11-20T10:04:00;100831.56;;;-0.09;100.00
26043;BME280;13818;52.156;5.382;2022-11-20T10:06:30;100821.97;;;-0.07;100.00
26043;BME280;13818;52.156;5.382;2022-11-20T10:09:06;100821.09;;;-0.11;100.00
26043;BME280;13818;52.156;5.382;2022-11-20T10:11:42;100815.81;;;0.02;100.00
26043;BME280;13818;52.156;5.382;2022-11-20T10:14:20;100816.66;;;0.08;100.00
26043;BME280;13818;52.156;5.382;2022-11-20T10:17:00;100814.88;;;0.24;100.00
26043;BME280;13818;52.156;5.382;2022-11-20T10:19:41;100813.94;;;0.35;100.00
26043;BME280;13818;52.156;5.382;2022-11-20T10:22:21;100806.09;;;0.33;100.00
26043;BME280;13818;52.156;5.382;2022-11-20T10:24:56;100804.28;;;0.41;100.00
26043;BME280;13818;52.156;5.382;2022-11-20T10:27:54;100798.16;;;0.47;100.00
26043;BME280;13818;52.156;5.382;2022-11-20T10:30:22;100785.06;;;0.45;100.00
26043;BME280;13818;52.156;5.382;2022-11-20T10:32:52;100784.16;;;0.50;100.00
26043;BME280;13818;52.156;5.382;2022-11-20T10:35:24;100784.09;;;0.59;100.00
26043;BME280;13818;52.156;5.382;2022-11-20T10:37:56;100770.88;;;0.74;100.00
26043;BME280;13818;52.156;5.382;2022-11-20T10:40:30;100773.47;;;0.77;100.00
26043;BME280;13818;52.156;5.382;2022-11-20T10:43:01;100762.84;;;0.97;100.00
26043;BME280;13818;52.156;5.382;2022-11-20T10:45:43;100769.88;;;0.92;100.00
26043;BME280;13818;52.156;5.382;2022-11-20T10:48:15;100774.16;;;1.07;100.00
26043;BME280;13818;52.156;5.382;2022-11-20T10:50:53;100754.06;;;1.00;100.00
26043;BME280;13818;52.156;5.382;2022-11-20T10:53:31;100747.06;;;1.02;100.00
26043;BME280;13818;52.156;5.382;2022-11-20T10:56:08;100737.44;;;1.01;100.00
26043;BME280;13818;52.156;5.382;2022-11-20T10:58:42;100747.06;;;0.99;100.00
26043;BME280;13818;52.156;5.382;2022-11-20T11:01:15;100736.50;;;1.07;100.00
26043;BME280;13818;52.156;5.382;2022-11-20T11:03:42;100744.25;;;1.21;100.00
26043;BME280;13818;52.156;5.382;2022-11-20T11:06:17;100750.31;;;1.29;100.00
26043;BME280;13818;52.156;5.382;2022-11-20T11:08:49;100734.53;;;1.32;100.00
26043;BME280;13818;52.156;5.382;2022-11-20T11:11:21;100736.19;;;1.41;100.00
26043;BME280;13818;52.156;5.382;2022-11-20T11:13:49;100723.16;;;1.32;100.00
26043;BME280;13818;52.156;5.382;2022-11-20T11:16:20;100717.88;;;1.33;100.00
26043;BME280;13818;52.156;5.382;2022-11-20T11:18:47;100719.56;;;1.42;100.00
26043;BME280;13818;52.156;5.382;2022-11-20T11:21:21;100706.31;;;1.53;100.00
26043;BME280;13818;52.156;5.382;2022-11-20T11:23:57;100702.03;;;1.41;100.00
26043;BME280;13818;52.156;5.382;2022-11-20T11:26:26;100697.69;;;1.41;100.00
26043;BME280;13818;52.156;5.382;2022-11-20T11:28:54;100700.38;;;1.35;100.00
26043;BME280;13818;52.156;5.382;2022-11-20T11:31:25;100685.50;;;1.31;100.00
26043;BME280;13818;52.156;5.382;2022-11-20T11:34:03;100677.50;;;1.46;100.00
26043;BME280;13818;52.156;5.382;2022-11-20T11:36:32;100670.34;;;1.56;100.00
26043;BME280;13818;52.156;5.382;2022-11-20T11:39:01;100674.72;;;1.59;100.00
26043;BME280;13818;52.156;5.382;2022-11-20T11:41:31;100653.72;;;1.56;100.00
26043;BME280;13818;52.156;5.382;2022-11-20T11:44:02;100664.22;;;1.57;100.00
26043;BME280;13818;52.156;5.382;2022-11-20T11:46:57;100654.69;;;1.49;100.00
26043;BME280;13818;52.156;5.382;2022-11-20T11:49:23;100665.97;;;1.58;100.00
26043;BME280;13818;52.156;5.382;2022-11-20T11:52:00;100655.34;;;1.69;100.00
26043;BME280;13818;52.156;5.382;2022-11-20T11:54:33;100652.69;;;1.69;100.00
26043;BME280;13818;52.156;5.382;2022-11-20T11:57:05;100640.47;;;1.65;100.00
26043;BME280;13818;52.156;5.382;2022-11-20T11:59:43;100636.09;;;1.66;100.00
26043;BME280;13818;52.156;5.382;2022-11-20T12:02:15;100643.91;;;1.72;100.00
26043;BME280;13818;52.156;5.382;2022-11-20T12:04:50;100642.16;;;1.71;100.00
26043;BME280;13818;52.156;5.382;2022-11-20T12:07:27;100628.03;;;1.79;100.00
26043;BME280;13818;52.156;5.382;2022-11-20T12:09:58;100609.66;;;1.79;100.00
26043;BME280;13818;52.156;5.382;2022-11-20T12:12:29;100610.53;;;1.78;100.00
26043;BME280;13818;52.156;5.382;2022-11-20T12:14:58;100610.38;;;1.88;100.00
26043;BME280;13818;52.156;5.382;2022-11-20T12:17:24;100607.00;;;1.81;100.00
26043;BME280;13818;52.156;5.382;2022-11-20T12:19:51;100609.38;;;1.97;100.00
26043;BME280;13818;52.156;5.382;2022-11-20T12:22:26;100612.03;;;1.97;100.00
26043;BME280;13818;52.156;5.382;2022-11-20T12:24:58;100605.84;;;2.01;100.00
26043;BME280;13818;52.156;5.382;2022-11-20T12:27:43;100596.06;;;2.09;100.00
26043;BME280;13818;52.156;5.382;2022-11-20T12:30:16;100600.31;;;2.18;100.00
26043;BME280;13818;52.156;5.382;2022-11-20T12:33:07;100606.41;;;2.21;100.00
26043;BME280;13818;52.156;5.382;2022-11-20T12:35:50;100603.84;;;2.17;100.00
26043;BME280;13818;52.156;5.382;2022-11-20T12:41:31;100592.50;;;2.15;100.00
26043;BME280;13818;52.156;5.382;2022-11-20T12:44:32;100579.34;;;2.15;100.00
26043;BME280;13818;52.156;5.382;2022-11-20T12:47:24;100573.28;;;2.08;100.00
26043;BME280;13818;52.156;5.382;2022-11-20T12:50:02;100566.28;;;2.08;100.00
26043;BME280;13818;52.156;5.382;2022-11-20T12:52:39;100553.19;;;2.07;100.00
26043;BME280;13818;52.156;5.382;2022-11-20T12:55:23;100544.25;;;2.17;100.00
26043;BME280;13818;52.156;5.382;2022-11-20T12:57:57;100544.28;;;2.16;100.00
26043;BME280;13818;52.156;5.382;2022-11-20T13:00:25;100529.41;;;2.11;100.00